Time,TemperatureF,DewpointF,PressureIn,WindDirection,WindDirectionDegrees,WindSpeedMPH,WindSpeedGustMPH,Humidity,HourlyPrecipIn,Conditions,Clouds,dailyrainin,SoftwareType,DateUTC
2013-05-11 00:00:00,59.1,41.0,30.11,NNE,18,3.0,30.0,51,0.00,,,0.00,Wunderground v.1.15,2013-05-11 05:00:00,
2013-05-11 00:05:00,57.8,40.8,30.12,NNE,18,3.0,30.0,53,0.00,,,0.00,Wunderground v.1.15,2013-05-11 05:05:00,
2013-05-11 00:14:00,56.8,40.3,30.11,NW,311,5.0,30.0,54,0.00,,,0.00,Wunderground v.1.15,2013-05-11 05:14:00,
2013-05-11 00:19:00,56.6,40.1,30.11,NW,311,5.0,30.0,54,0.00,,,0.00,Wunderground v.1.15,2013-05-11 05:19:00,
2013-05-11 00:25:00,56.4,40.4,30.11,NW,311,5.0,30.0,55,0.00,,,0.00,Wunderground v.1.15,2013-05-11 05:25:00,
2013-05-11 00:34:00,56.5,40.5,30.11,NW,311,5.0,30.0,55,0.00,,,0.00,Wunderground v.1.15,2013-05-11 05:34:00,
2013-05-11 00:39:00,56.1,40.6,30.11,NW,306,5.0,30.0,56,0.00,,,0.00,Wunderground v.1.15,2013-05-11 05:39:00,
2013-05-11 00:44:00,55.5,40.5,30.11,NW,305,5.0,30.0,57,0.00,,,0.00,Wunderground v.1.15,2013-05-11 05:44:00,
2013-05-11 00:50:00,54.9,40.8,30.11,WSW,250,5.0,30.0,59,0.00,,,0.00,Wunderground v.1.15,2013-05-11 05:50:00,
2013-05-11 01:00:00,55.0,40.9,30.11,WSW,248,6.0,6.0,59,0.00,,,0.00,Wunderground v.1.15,2013-05-11 06:00:00,
2013-05-11 01:09:00,54.2,41.5,30.12,WSW,248,7.0,30.0,62,0.00,,,0.00,Wunderground v.1.15,2013-05-11 06:09:00,
2013-05-11 01:14:00,54.1,41.8,30.12,WSW,258,7.0,30.0,63,0.00,,,0.00,Wunderground v.1.15,2013-05-11 06:14:00,
2013-05-11 01:20:00,53.5,42.0,30.12,West,266,7.0,30.0,65,0.00,,,0.00,Wunderground v.1.15,2013-05-11 06:20:00,
2013-05-11 01:29:00,53.2,42.1,30.12,West,265,8.0,30.0,66,0.00,,,0.00,Wunderground v.1.15,2013-05-11 06:29:00,
2013-05-11 01:35:00,52.9,42.2,30.12,West,269,8.0,30.0,67,0.00,,,0.00,Wunderground v.1.15,2013-05-11 06:35:00,
2013-05-11 01:44:00,53.4,42.3,30.13,West,269,7.0,11.0,66,0.00,,,0.00,Wunderground v.1.15,2013-05-11 06:44:00,
2013-05-11 01:49:00,53.3,42.2,30.13,West,281,8.0,8.0,66,0.00,,,0.00,Wunderground v.1.15,2013-05-11 06:49:00,
2013-05-11 01:59:00,52.0,41.8,30.13,WNW,300,6.0,30.0,68,0.00,,,0.00,Wunderground v.1.15,2013-05-11 06:59:00,
2013-05-11 02:04:00,52.5,42.2,30.12,WNW,285,6.0,30.0,68,0.00,,,0.00,Wunderground v.1.15,2013-05-11 07:04:00,
2013-05-11 02:09:00,52.8,42.1,30.13,WNW,290,7.0,30.0,67,0.00,,,0.00,Wunderground v.1.15,2013-05-11 07:09:00,
2013-05-11 02:15:00,52.3,42.4,30.13,WNW,284,8.0,30.0,69,0.00,,,0.00,Wunderground v.1.15,2013-05-11 07:15:00,
2013-05-11 02:24:00,52.1,42.6,30.13,WNW,295,8.0,30.0,70,0.00,,,0.00,Wunderground v.1.15,2013-05-11 07:24:00,
2013-05-11 02:29:00,52.0,42.5,30.13,NW,306,8.0,30.0,70,0.00,,,0.00,Wunderground v.1.15,2013-05-11 07:29:00,
2013-05-11 02:35:00,52.1,43.0,30.13,NW,304,8.0,30.0,71,0.00,,,0.00,Wunderground v.1.15,2013-05-11 07:35:00,
2013-05-11 02:44:00,53.1,43.2,30.13,NW,304,8.0,10.0,69,0.00,,,0.00,Wunderground v.1.15,2013-05-11 07:44:00,
2013-05-11 02:49:00,53.9,43.6,30.13,NW,312,9.0,30.0,68,0.00,,,0.00,Wunderground v.1.15,2013-05-11 07:49:00,
2013-05-11 02:55:00,54.8,44.0,30.13,NNW,334,11.0,30.0,67,0.00,,,0.00,Wunderground v.1.15,2013-05-11 07:55:00,
2013-05-11 03:04:00,55.5,44.3,30.14,NW,322,9.0,12.0,66,0.00,,,0.00,Wunderground v.1.15,2013-05-11 08:04:00,
2013-05-11 03:14:00,55.3,44.5,30.14,NW,323,12.0,30.0,67,0.00,,,0.00,Wunderground v.1.15,2013-05-11 08:14:00,
2013-05-11 03:19:00,55.6,44.4,30.14,NW,324,13.0,30.0,66,0.00,,,0.00,Wunderground v.1.15,2013-05-11 08:19:00,
2013-05-11 03:24:00,55.5,44.7,30.14,NW,320,14.0,30.0,67,0.00,,,0.00,Wunderground v.1.15,2013-05-11 08:24:00,
2013-05-11 03:30:00,55.4,44.6,30.15,NNW,329,13.0,13.0,67,0.00,,,0.00,Wunderground v.1.15,2013-05-11 08:30:00,
2013-05-11 03:39:00,55.8,45.0,30.15,NW,326,12.0,12.0,67,0.00,,,0.00,Wunderground v.1.15,2013-05-11 08:39:00,
2013-05-11 03:44:00,55.6,44.8,30.15,NNW,339,11.0,30.0,67,0.00,,,0.00,Wunderground v.1.15,2013-05-11 08:44:00,
2013-05-11 03:50:00,55.4,44.6,30.15,NNW,341,10.0,10.0,67,0.00,,,0.00,Wunderground v.1.15,2013-05-11 08:50:00,
2013-05-11 03:59:00,55.1,44.7,30.16,North,355,9.0,9.0,68,0.00,,,0.00,Wunderground v.1.15,2013-05-11 08:59:00,
2013-05-11 04:05:00,55.0,44.6,30.16,NW,322,9.0,12.0,68,0.00,,,0.00,Wunderground v.1.15,2013-05-11 09:05:00,
2013-05-11 04:14:00,55.1,44.7,30.17,NNW,341,10.0,30.0,68,0.00,,,0.00,Wunderground v.1.15,2013-05-11 09:14:00,
2013-05-11 04:19:00,55.1,44.7,30.17,NNE,20,10.0,10.0,68,0.00,,,0.00,Wunderground v.1.15,2013-05-11 09:19:00,
2013-05-11 04:24:00,55.1,44.7,30.18,NNW,346,10.0,30.0,68,0.00,,,0.00,Wunderground v.1.15,2013-05-11 09:24:00,
2013-05-11 04:30:00,54.8,44.8,30.18,NNW,328,9.0,9.0,69,0.00,,,0.00,Wunderground v.1.15,2013-05-11 09:30:00,
2013-05-11 04:39:00,54.2,44.6,30.19,NNE,16,7.0,7.0,70,0.00,,,0.00,Wunderground v.1.15,2013-05-11 09:39:00,
2013-05-11 04:45:00,53.8,44.2,30.19,NNE,16,6.0,30.0,70,0.00,,,0.00,Wunderground v.1.15,2013-05-11 09:45:00,
2013-05-11 04:54:00,53.6,44.4,30.20,NNE,19,9.0,30.0,71,0.00,,,0.00,Wunderground v.1.15,2013-05-11 09:54:00,
2013-05-11 04:59:00,53.3,44.1,30.20,NNE,12,9.0,9.0,71,0.00,,,0.00,Wunderground v.1.15,2013-05-11 09:59:00,
2013-05-11 05:05:00,53.0,44.2,30.20,NE,34,8.0,30.0,72,0.00,,,0.00,Wunderground v.1.15,2013-05-11 10:05:00,
2013-05-11 05:14:00,52.5,44.1,30.20,NE,34,10.0,30.0,73,0.00,,,0.00,Wunderground v.1.15,2013-05-11 10:14:00,
2013-05-11 05:19:00,52.2,43.8,30.20,NNE,19,11.0,30.0,73,0.00,,,0.00,Wunderground v.1.15,2013-05-11 10:19:00,
2013-05-11 05:25:00,51.9,43.9,30.21,NNE,28,10.0,30.0,74,0.00,,,0.00,Wunderground v.1.15,2013-05-11 10:25:00,
2013-05-11 05:34:00,51.1,43.4,30.21,NNE,21,9.0,30.0,75,0.00,,,0.00,Wunderground v.1.15,2013-05-11 10:34:00,
2013-05-11 05:39:00,50.7,43.1,30.22,NNE,29,7.0,7.0,75,0.00,,,0.00,Wunderground v.1.15,2013-05-11 10:39:00,
2013-05-11 05:49:00,50.0,43.1,30.22,North,360,3.0,30.0,77,0.00,,,0.00,Wunderground v.1.15,2013-05-11 10:49:00,
2013-05-11 05:54:00,49.7,43.1,30.23,North,5,3.0,30.0,78,0.00,,,0.00,Wunderground v.1.15,2013-05-11 10:54:00,
2013-05-11 06:00:00,49.5,42.9,30.23,North,5,3.0,30.0,78,0.00,,,0.00,Wunderground v.1.15,2013-05-11 11:00:00,
2013-05-11 06:09:00,48.5,42.6,30.23,North,5,3.0,30.0,80,0.00,,,0.00,Wunderground v.1.15,2013-05-11 11:09:00,
2013-05-11 06:15:00,47.9,42.0,30.23,North,5,3.0,30.0,80,0.00,,,0.00,Wunderground v.1.15,2013-05-11 11:15:00,
2013-05-11 06:24:00,46.9,41.7,30.24,NNW,347,3.0,30.0,82,0.00,,,0.00,Wunderground v.1.15,2013-05-11 11:24:00,
2013-05-11 06:29:00,46.4,41.5,30.24,NNW,347,3.0,3.0,83,0.00,,,0.00,Wunderground v.1.15,2013-05-11 11:29:00,
2013-05-11 06:39:00,46.2,41.6,30.24,NW,317,2.0,30.0,84,0.00,,,0.00,Wunderground v.1.15,2013-05-11 11:39:00,
2013-05-11 06:44:00,46.1,41.5,30.25,NW,317,3.0,30.0,84,0.00,,,0.00,Wunderground v.1.15,2013-05-11 11:44:00,
2013-05-11 06:49:00,46.2,41.6,30.25,NW,320,3.0,30.0,84,0.00,,,0.00,Wunderground v.1.15,2013-05-11 11:49:00,
2013-05-11 06:54:00,46.4,41.8,30.25,NW,322,3.0,30.0,84,0.00,,,0.00,Wunderground v.1.15,2013-05-11 11:54:00,
2013-05-11 07:04:00,46.9,42.3,30.26,NNW,332,4.0,30.0,84,0.00,,,0.00,Wunderground v.1.15,2013-05-11 12:04:00,
2013-05-11 07:09:00,47.4,42.5,30.26,NW,325,5.0,30.0,83,0.00,,,0.00,Wunderground v.1.15,2013-05-11 12:09:00,
2013-05-11 07:14:00,47.8,42.6,30.26,North,349,6.0,30.0,82,0.00,,,0.00,Wunderground v.1.15,2013-05-11 12:14:00,
2013-05-11 07:20:00,48.3,42.7,30.27,North,360,6.0,30.0,81,0.00,,,0.00,Wunderground v.1.15,2013-05-11 12:20:00,
2013-05-11 07:29:00,49.0,42.8,30.27,NNW,327,7.0,7.0,79,0.00,,,0.00,Wunderground v.1.15,2013-05-11 12:29:00,
2013-05-11 07:34:00,49.2,42.6,30.28,North,9,6.0,30.0,78,0.00,,,0.00,Wunderground v.1.15,2013-05-11 12:34:00,
2013-05-11 07:40:00,49.5,42.6,30.28,NNW,345,6.0,30.0,77,0.00,,,0.00,Wunderground v.1.15,2013-05-11 12:40:00,
2013-05-11 07:49:00,50.4,42.8,30.29,North,360,7.0,30.0,75,0.00,,,0.00,Wunderground v.1.15,2013-05-11 12:49:00,
2013-05-11 07:54:00,50.9,42.6,30.29,NNW,346,7.0,30.0,73,0.00,,,0.00,Wunderground v.1.15,2013-05-11 12:54:00,
2013-05-11 08:04:00,51.1,42.7,30.29,NW,319,7.0,30.0,73,0.00,,,0.00,Wunderground v.1.15,2013-05-11 13:04:00,
2013-05-11 08:09:00,51.3,42.6,30.29,NNW,346,8.0,8.0,72,0.00,,,0.00,Wunderground v.1.15,2013-05-11 13:09:00,
2013-05-11 08:14:00,51.5,42.8,30.29,NNW,342,9.0,9.0,72,0.00,,,0.00,Wunderground v.1.15,2013-05-11 13:14:00,
2013-05-11 08:20:00,52.1,43.0,30.29,NNW,333,8.0,30.0,71,0.00,,,0.00,Wunderground v.1.15,2013-05-11 13:20:00,
2013-05-11 08:29:00,52.9,41.4,30.29,NNW,348,10.0,10.0,65,0.00,,,0.00,Wunderground v.1.15,2013-05-11 13:29:00,
2013-05-11 08:34:00,53.2,41.7,30.29,NNW,342,10.0,12.0,65,0.00,,,0.00,Wunderground v.1.15,2013-05-11 13:34:00,
2013-05-11 08:40:00,53.6,41.7,30.30,NNE,24,9.0,9.0,64,0.00,,,0.00,Wunderground v.1.15,2013-05-11 13:40:00,
2013-05-11 08:49:00,54.1,41.8,30.30,NNW,338,10.0,10.0,63,0.00,,,0.00,Wunderground v.1.15,2013-05-11 13:49:00,
2013-05-11 08:54:00,54.2,41.5,30.31,North,360,11.0,11.0,62,0.00,,,0.00,Wunderground v.1.15,2013-05-11 13:54:00,
2013-05-11 08:59:00,54.1,41.4,30.31,NNW,336,11.0,11.0,62,0.00,,,0.00,Wunderground v.1.15,2013-05-11 13:59:00,
2013-05-11 09:09:00,54.2,40.2,30.32,WNW,302,11.0,30.0,59,0.00,,,0.00,Wunderground v.1.15,2013-05-11 14:09:00,
2013-05-11 09:14:00,54.3,39.8,30.32,North,355,12.0,30.0,58,0.00,,,0.00,Wunderground v.1.15,2013-05-11 14:14:00,
2013-05-11 09:20:00,54.5,37.7,30.32,North,350,13.0,13.0,53,0.00,,,0.00,Wunderground v.1.15,2013-05-11 14:20:00,
2013-05-11 09:25:00,54.7,37.4,30.32,North,360,12.0,17.0,52,0.00,,,0.00,Wunderground v.1.15,2013-05-11 14:25:00,
2013-05-11 09:34:00,55.1,35.2,30.32,NNW,336,13.0,30.0,47,0.00,,,0.00,Wunderground v.1.15,2013-05-11 14:34:00,
2013-05-11 09:39:00,55.3,34.3,30.32,North,355,13.0,13.0,45,0.00,,,0.00,Wunderground v.1.15,2013-05-11 14:39:00,
2013-05-11 09:45:00,55.2,34.2,30.32,NNE,25,13.0,30.0,45,0.00,,,0.00,Wunderground v.1.15,2013-05-11 14:45:00,
2013-05-11 09:54:00,55.2,32.5,30.32,NNW,333,13.0,14.0,42,0.00,,,0.00,Wunderground v.1.15,2013-05-11 14:54:00,
2013-05-11 09:59:00,55.0,31.1,30.32,North,5,14.0,30.0,40,0.00,,,0.00,Wunderground v.1.15,2013-05-11 14:59:00,
2013-05-11 10:05:00,55.4,32.7,30.32,NNW,330,14.0,30.0,42,0.00,,,0.00,Wunderground v.1.15,2013-05-11 15:05:00,
2013-05-11 10:14:00,55.8,31.8,30.32,NW,324,12.0,30.0,40,0.00,,,0.00,Wunderground v.1.15,2013-05-11 15:14:00,
2013-05-11 10:24:00,56.7,30.7,30.32,North,11,12.0,17.0,37,0.00,,,0.00,Wunderground v.1.15,2013-05-11 15:24:00,
2013-05-11 10:29:00,56.4,31.1,30.32,NNE,30,13.0,13.0,38,0.00,,,0.00,Wunderground v.1.15,2013-05-11 15:29:00,
2013-05-11 10:35:00,56.5,30.5,30.32,North,355,14.0,14.0,37,0.00,,,0.00,Wunderground v.1.15,2013-05-11 15:35:00,
2013-05-11 10:44:00,57.4,30.6,30.32,NW,312,13.0,30.0,36,0.00,,,0.00,Wunderground v.1.15,2013-05-11 15:44:00,
2013-05-11 10:49:00,56.9,30.2,30.32,North,360,13.0,30.0,36,0.00,,,0.00,Wunderground v.1.15,2013-05-11 15:49:00,
2013-05-11 10:54:00,57.4,29.9,30.32,NNW,336,13.0,30.0,35,0.00,,,0.00,Wunderground v.1.15,2013-05-11 15:54:00,
2013-05-11 11:00:00,57.1,29.7,30.32,NNE,22,14.0,14.0,35,0.00,,,0.00,Wunderground v.1.15,2013-05-11 16:00:00,
2013-05-11 11:09:00,57.5,30.0,30.32,NNW,340,14.0,30.0,35,0.00,,,0.00,Wunderground v.1.15,2013-05-11 16:09:00,
2013-05-11 11:14:00,57.7,29.5,30.32,NNE,32,14.0,30.0,34,0.00,,,0.00,Wunderground v.1.15,2013-05-11 16:14:00,
2013-05-11 11:19:00,57.8,28.9,30.32,North,349,13.0,30.0,33,0.00,,,0.00,Wunderground v.1.15,2013-05-11 16:19:00,
2013-05-11 11:25:00,58.2,29.2,30.32,North,5,12.0,30.0,33,0.00,,,0.00,Wunderground v.1.15,2013-05-11 16:25:00,
2013-05-11 11:34:00,58.9,29.1,30.33,North,5,14.0,16.0,32,0.00,,,0.00,Wunderground v.1.15,2013-05-11 16:34:00,
2013-05-11 11:40:00,58.3,28.5,30.33,NNE,17,13.0,13.0,32,0.00,,,0.00,Wunderground v.1.15,2013-05-11 16:40:00,
2013-05-11 11:49:00,58.8,29.0,30.32,NW,321,13.0,30.0,32,0.00,,,0.00,Wunderground v.1.15,2013-05-11 16:49:00,
2013-05-11 11:54:00,58.9,29.1,30.33,NE,35,14.0,30.0,32,0.00,,,0.00,Wunderground v.1.15,2013-05-11 16:54:00,
2013-05-11 12:00:00,58.9,28.3,30.32,North,360,14.0,30.0,31,0.00,,,0.00,Wunderground v.1.15,2013-05-11 17:00:00,
2013-05-11 12:09:00,59.5,28.0,30.32,North,355,14.0,14.0,30,0.00,,,0.00,Wunderground v.1.15,2013-05-11 17:09:00,
2013-05-11 12:15:00,59.5,28.0,30.32,NNE,15,13.0,30.0,30,0.00,,,0.00,Wunderground v.1.15,2013-05-11 17:15:00,
2013-05-11 12:24:00,59.6,28.9,30.33,North,355,16.0,30.0,31,0.00,,,0.00,Wunderground v.1.15,2013-05-11 17:24:00,
2013-05-11 12:29:00,59.8,27.4,30.32,North,355,14.0,30.0,29,0.00,,,0.00,Wunderground v.1.15,2013-05-11 17:29:00,
2013-05-11 12:34:00,60.5,28.1,30.33,NW,312,13.0,30.0,29,0.00,,,0.00,Wunderground v.1.15,2013-05-11 17:34:00,
2013-05-11 12:40:00,60.3,30.3,30.33,NW,307,12.0,12.0,32,0.00,,,0.00,Wunderground v.1.15,2013-05-11 17:40:00,
2013-05-11 12:49:00,60.4,28.0,30.32,NNW,327,13.0,30.0,29,0.00,,,0.00,Wunderground v.1.15,2013-05-11 17:49:00,
2013-05-11 12:54:00,60.3,27.9,30.32,WNW,303,14.0,30.0,29,0.00,,,0.00,Wunderground v.1.15,2013-05-11 17:54:00,
2013-05-11 13:04:00,60.1,26.9,30.32,North,350,16.0,16.0,28,0.00,,,0.00,Wunderground v.1.15,2013-05-11 18:04:00,
2013-05-11 13:09:00,60.6,27.3,30.32,North,355,15.0,15.0,28,0.00,,,0.00,Wunderground v.1.15,2013-05-11 18:09:00,
2013-05-11 13:14:00,60.7,28.2,30.32,North,5,14.0,30.0,29,0.00,,,0.00,Wunderground v.1.15,2013-05-11 18:14:00,
2013-05-11 13:19:00,61.5,28.9,30.32,NNW,338,13.0,13.0,29,0.00,,,0.00,Wunderground v.1.15,2013-05-11 18:19:00,
2013-05-11 13:25:00,61.4,28.8,30.32,NNW,345,13.0,15.0,29,0.00,,,0.00,Wunderground v.1.15,2013-05-11 18:25:00,
2013-05-11 13:34:00,60.9,27.5,30.32,North,360,15.0,30.0,28,0.00,,,0.00,Wunderground v.1.15,2013-05-11 18:34:00,
2013-05-11 13:39:00,60.6,27.3,30.32,NNW,337,15.0,30.0,28,0.00,,,0.00,Wunderground v.1.15,2013-05-11 18:39:00,
2013-05-11 13:44:00,60.6,29.8,30.32,NNW,339,15.0,30.0,31,0.00,,,0.00,Wunderground v.1.15,2013-05-11 18:44:00,
2013-05-11 13:50:00,60.2,26.9,30.32,NNE,25,16.0,16.0,28,0.00,,,0.00,Wunderground v.1.15,2013-05-11 18:50:00,
2013-05-11 14:00:00,60.5,28.9,30.32,North,349,16.0,16.0,30,0.00,,,0.00,Wunderground v.1.15,2013-05-11 19:00:00,
2013-05-11 14:09:00,61.4,28.8,30.32,North,360,13.0,30.0,29,0.00,,,0.00,Wunderground v.1.15,2013-05-11 19:09:00,
2013-05-11 14:14:00,61.4,28.8,30.32,NW,319,13.0,30.0,29,0.00,,,0.00,Wunderground v.1.15,2013-05-11 19:14:00,
2013-05-11 14:19:00,60.7,29.1,30.32,NNW,331,14.0,14.0,30,0.00,,,0.00,Wunderground v.1.15,2013-05-11 19:19:00,
2013-05-11 14:25:00,61.5,29.7,30.31,NNE,12,13.0,30.0,30,0.00,,,0.00,Wunderground v.1.15,2013-05-11 19:25:00,
2013-05-11 14:34:00,62.1,31.1,30.32,North,10,12.0,30.0,31,0.00,,,0.00,Wunderground v.1.15,2013-05-11 19:34:00,
2013-05-11 14:40:00,62.0,29.3,30.31,NNW,348,12.0,30.0,29,0.00,,,0.00,Wunderground v.1.15,2013-05-11 19:40:00,
2013-05-11 14:49:00,61.8,30.0,30.31,NNW,328,15.0,30.0,30,0.00,,,0.00,Wunderground v.1.15,2013-05-11 19:49:00,
2013-05-11 14:55:00,60.8,29.1,30.31,NNW,329,15.0,30.0,30,0.00,,,0.00,Wunderground v.1.15,2013-05-11 19:55:00,
2013-05-11 15:04:00,61.9,30.9,30.31,North,10,15.0,30.0,31,0.00,,,0.00,Wunderground v.1.15,2013-05-11 20:04:00,
2013-05-11 15:10:00,61.7,28.2,30.31,NW,313,16.0,30.0,28,0.00,,,0.00,Wunderground v.1.15,2013-05-11 20:10:00,
2013-05-11 15:19:00,61.2,27.8,30.31,North,355,16.0,16.0,28,0.00,,,0.00,Wunderground v.1.15,2013-05-11 20:19:00,
2013-05-11 15:24:00,61.3,28.7,30.31,NNE,22,12.0,30.0,29,0.00,,,0.00,Wunderground v.1.15,2013-05-11 20:24:00,
2013-05-11 15:30:00,61.4,28.0,30.30,NW,316,15.0,30.0,28,0.00,,,0.00,Wunderground v.1.15,2013-05-11 20:30:00,
2013-05-11 15:39:00,61.4,28.0,30.30,NW,324,17.0,17.0,28,0.00,,,0.00,Wunderground v.1.15,2013-05-11 20:39:00,
2013-05-11 15:44:00,61.2,26.9,30.29,NW,322,15.0,31.0,27,0.00,,,0.00,Wunderground v.1.15,2013-05-11 20:44:00,
2013-05-11 15:49:00,61.9,29.3,30.30,NW,321,17.0,17.0,29,0.00,,,0.00,Wunderground v.1.15,2013-05-11 20:49:00,
2013-05-11 15:55:00,61.6,28.1,30.30,NNW,336,15.0,30.0,28,0.00,,,0.00,Wunderground v.1.15,2013-05-11 20:55:00,
2013-05-11 16:04:00,62.3,27.9,30.30,NNW,336,14.0,30.0,27,0.00,,,0.00,Wunderground v.1.15,2013-05-11 21:04:00,
2013-05-11 16:10:00,62.2,27.8,30.30,NNW,348,12.0,12.0,27,0.00,,,0.00,Wunderground v.1.15,2013-05-11 21:10:00,
2013-05-11 16:15:00,61.9,27.5,30.29,NW,323,12.0,13.0,27,0.00,,,0.00,Wunderground v.1.15,2013-05-11 21:15:00,
2013-05-11 16:24:00,62.1,28.6,30.29,NNW,327,12.0,30.0,28,0.00,,,0.00,Wunderground v.1.15,2013-05-11 21:24:00,
2013-05-11 16:30:00,62.3,28.7,30.28,WNW,294,12.0,30.0,28,0.00,,,0.00,Wunderground v.1.15,2013-05-11 21:30:00,
2013-05-11 16:39:00,61.8,26.5,30.29,NW,317,15.0,15.0,26,0.00,,,0.00,Wunderground v.1.15,2013-05-11 21:39:00,
2013-05-11 16:45:00,62.2,27.8,30.29,NW,314,11.0,27.0,27,0.00,,,0.00,Wunderground v.1.15,2013-05-11 21:45:00,
2013-05-11 16:54:00,61.4,27.1,30.29,NW,308,16.0,30.0,27,0.00,,,0.00,Wunderground v.1.15,2013-05-11 21:54:00,
2013-05-11 16:59:00,62.2,26.9,30.28,North,10,13.0,13.0,26,0.00,,,0.00,Wunderground v.1.15,2013-05-11 21:59:00,
2013-05-11 17:09:00,61.3,26.1,30.28,WNW,301,14.0,14.0,26,0.00,,,0.00,Wunderground v.1.15,2013-05-11 22:09:00,
2013-05-11 17:14:00,62.1,25.8,30.28,North,360,13.0,30.0,25,0.00,,,0.00,Wunderground v.1.15,2013-05-11 22:14:00,
2013-05-11 17:20:00,62.1,25.8,30.28,North,360,12.0,12.0,25,0.00,,,0.00,Wunderground v.1.15,2013-05-11 22:20:00,
2013-05-11 17:29:00,62.4,27.0,30.28,NNW,329,10.0,30.0,26,0.00,,,0.00,Wunderground v.1.15,2013-05-11 22:29:00,
2013-05-11 17:34:00,61.9,26.6,30.28,NNW,344,15.0,30.0,26,0.00,,,0.00,Wunderground v.1.15,2013-05-11 22:34:00,
2013-05-11 17:44:00,61.7,25.5,30.28,NW,311,14.0,30.0,25,0.00,,,0.00,Wunderground v.1.15,2013-05-11 22:44:00,
2013-05-11 17:49:00,61.8,25.6,30.28,NW,313,12.0,30.0,25,0.00,,,0.00,Wunderground v.1.15,2013-05-11 22:49:00,
2013-05-11 17:55:00,62.0,25.7,30.28,North,5,11.0,30.0,25,0.00,,,0.00,Wunderground v.1.15,2013-05-11 22:55:00,
2013-05-11 18:04:00,61.9,24.7,30.27,NE,35,9.0,30.0,24,0.00,,,0.00,Wunderground v.1.15,2013-05-11 23:04:00,
2013-05-11 18:09:00,62.2,23.9,30.27,NW,317,9.0,30.0,23,0.00,,,0.00,Wunderground v.1.15,2013-05-11 23:09:00,
2013-05-11 18:14:00,62.2,23.9,30.28,NNW,327,10.0,30.0,23,0.00,,,0.00,Wunderground v.1.15,2013-05-11 23:14:00,
2013-05-11 18:19:00,61.8,24.6,30.27,NNW,329,10.0,30.0,24,0.00,,,0.00,Wunderground v.1.15,2013-05-11 23:19:00,
2013-05-11 18:29:00,62.1,24.8,30.27,NNW,344,9.0,9.0,24,0.00,,,0.00,Wunderground v.1.15,2013-05-11 23:29:00,
2013-05-11 18:35:00,61.9,23.6,30.27,NNE,17,9.0,30.0,23,0.00,,,0.00,Wunderground v.1.15,2013-05-11 23:35:00,
2013-05-11 18:44:00,61.2,24.1,30.28,NW,319,11.0,12.0,24,0.00,,,0.00,Wunderground v.1.15,2013-05-11 23:44:00,
2013-05-11 18:49:00,61.4,24.2,30.27,NNW,333,10.0,30.0,24,0.00,,,0.00,Wunderground v.1.15,2013-05-11 23:49:00,
2013-05-11 18:55:00,61.4,24.2,30.27,NW,306,9.0,30.0,24,0.00,,,0.00,Wunderground v.1.15,2013-05-11 23:55:00,
2013-05-11 19:04:00,61.1,23.0,30.28,NNW,328,8.0,30.0,23,0.00,,,0.00,Wunderground v.1.15,2013-05-12 00:04:00,
2013-05-11 19:10:00,60.9,22.8,30.27,NW,324,9.0,9.0,23,0.00,,,0.00,Wunderground v.1.15,2013-05-12 00:10:00,
2013-05-11 19:19:00,60.6,21.5,30.27,North,9,8.0,8.0,22,0.00,,,0.00,Wunderground v.1.15,2013-05-12 00:19:00,
2013-05-11 19:25:00,60.4,21.3,30.27,North,355,8.0,30.0,22,0.00,,,0.00,Wunderground v.1.15,2013-05-12 00:25:00,
2013-05-11 19:34:00,60.3,22.3,30.27,NNW,348,7.0,30.0,23,0.00,,,0.00,Wunderground v.1.15,2013-05-12 00:34:00,
2013-05-11 19:39:00,60.2,21.2,30.27,North,5,7.0,7.0,22,0.00,,,0.00,Wunderground v.1.15,2013-05-12 00:39:00,
2013-05-11 19:49:00,59.5,20.6,30.27,North,9,7.0,7.0,22,0.00,,,0.00,Wunderground v.1.15,2013-05-12 00:49:00,
2013-05-11 19:55:00,59.1,21.3,30.27,NNE,28,6.0,30.0,23,0.00,,,0.00,Wunderground v.1.15,2013-05-12 00:55:00,
2013-05-11 20:04:00,58.6,21.9,30.27,NNW,329,6.0,7.0,24,0.00,,,0.00,Wunderground v.1.15,2013-05-12 01:04:00,
2013-05-11 20:09:00,58.3,21.6,30.27,North,360,5.0,5.0,24,0.00,,,0.00,Wunderground v.1.15,2013-05-12 01:09:00,
2013-05-11 20:19:00,57.4,20.9,30.27,NNE,24,6.0,30.0,24,0.00,,,0.00,Wunderground v.1.15,2013-05-12 01:19:00,
2013-05-11 20:24:00,56.6,22.1,30.28,NNE,17,6.0,30.0,26,0.00,,,0.00,Wunderground v.1.15,2013-05-12 01:24:00,
2013-05-11 20:29:00,55.8,22.3,30.28,NNE,14,4.0,4.0,27,0.00,,,0.00,Wunderground v.1.15,2013-05-12 01:29:00,
2013-05-11 20:39:00,54.0,23.2,30.28,NNE,14,4.0,4.0,30,0.00,,,0.00,Wunderground v.1.15,2013-05-12 01:39:00,
2013-05-11 20:44:00,53.2,22.5,30.28,NNE,15,4.0,5.0,30,0.00,,,0.00,Wunderground v.1.15,2013-05-12 01:44:00,
2013-05-11 20:49:00,52.7,22.1,30.28,NNE,18,5.0,30.0,30,0.00,,,0.00,Wunderground v.1.15,2013-05-12 01:49:00,
2013-05-11 20:54:00,52.5,22.7,30.28,NNE,20,4.0,30.0,31,0.00,,,0.00,Wunderground v.1.15,2013-05-12 01:54:00,
2013-05-11 21:04:00,52.2,22.4,30.28,NNE,24,4.0,30.0,31,0.00,,,0.00,Wunderground v.1.15,2013-05-12 02:04:00,
2013-05-11 21:09:00,51.9,22.2,30.28,NNE,24,4.0,30.0,31,0.00,,,0.00,Wunderground v.1.15,2013-05-12 02:09:00,
2013-05-11 21:19:00,50.4,22.3,30.28,NNE,25,4.0,4.0,33,0.00,,,0.00,Wunderground v.1.15,2013-05-12 02:19:00,
2013-05-11 21:24:00,49.8,22.5,30.28,NNE,25,4.0,30.0,34,0.00,,,0.00,Wunderground v.1.15,2013-05-12 02:24:00,
2013-05-11 21:29:00,49.5,22.3,30.28,NNE,25,4.0,30.0,34,0.00,,,0.00,Wunderground v.1.15,2013-05-12 02:29:00,
2013-05-11 21:39:00,49.9,21.9,30.28,NE,36,5.0,30.0,33,0.00,,,0.00,Wunderground v.1.15,2013-05-12 02:39:00,
2013-05-11 21:44:00,50.0,22.0,30.29,NE,36,5.0,30.0,33,0.00,,,0.00,Wunderground v.1.15,2013-05-12 02:44:00,
2013-05-11 21:49:00,50.1,22.1,30.29,NE,36,5.0,5.0,33,0.00,,,0.00,Wunderground v.1.15,2013-05-12 02:49:00,
2013-05-11 21:54:00,50.0,22.0,30.29,NE,36,3.0,30.0,33,0.00,,,0.00,Wunderground v.1.15,2013-05-12 02:54:00,
2013-05-11 22:04:00,49.7,21.7,30.29,NE,36,2.0,30.0,33,0.00,,,0.00,Wunderground v.1.15,2013-05-12 03:04:00,
2013-05-11 22:09:00,49.6,20.9,30.29,NE,36,2.0,30.0,32,0.00,,,0.00,Wunderground v.1.15,2013-05-12 03:09:00,
2013-05-11 22:15:00,49.6,20.9,30.29,NE,36,2.0,30.0,32,0.00,,,0.00,Wunderground v.1.15,2013-05-12 03:15:00,
2013-05-11 22:24:00,49.4,21.5,30.29,NE,36,2.0,30.0,33,0.00,,,0.00,Wunderground v.1.15,2013-05-12 03:24:00,
2013-05-11 22:29:00,49.4,20.7,30.30,NE,36,2.0,30.0,32,0.00,,,0.00,Wunderground v.1.15,2013-05-12 03:29:00,
2013-05-11 22:34:00,49.3,20.6,30.29,NE,36,3.0,30.0,32,0.00,,,0.00,Wunderground v.1.15,2013-05-12 03:34:00,
2013-05-11 22:40:00,49.1,21.2,30.29,NE,36,3.0,30.0,33,0.00,,,0.00,Wunderground v.1.15,2013-05-12 03:40:00,
2013-05-11 22:49:00,48.7,20.8,30.29,NE,36,3.0,3.0,33,0.00,,,0.00,Wunderground v.1.15,2013-05-12 03:49:00,
2013-05-11 22:55:00,48.6,21.5,30.29,NE,36,2.0,30.0,34,0.00,,,0.00,Wunderground v.1.15,2013-05-12 03:55:00,
2013-05-11 23:00:00,48.5,21.4,30.29,NE,36,2.0,30.0,34,0.00,,,0.00,Wunderground v.1.15,2013-05-12 04:00:00,
2013-05-11 23:05:00,48.2,21.1,30.29,NE,44,4.0,30.0,34,0.00,,,0.00,Wunderground v.1.15,2013-05-12 04:05:00,
2013-05-11 23:10:00,47.9,21.5,30.29,NE,44,4.0,4.0,35,0.00,,,0.00,Wunderground v.1.15,2013-05-12 04:10:00,
2013-05-11 23:20:00,47.2,21.6,30.29,NE,44,2.0,30.0,36,0.00,,,0.00,Wunderground v.1.15,2013-05-12 04:20:00,
2013-05-11 23:25:00,46.1,22.5,30.30,NE,44,1.0,30.0,39,0.00,,,0.00,Wunderground v.1.15,2013-05-12 04:25:00,
2013-05-11 23:30:00,44.9,22.0,30.29,NE,44,1.0,30.0,40,0.00,,,0.00,Wunderground v.1.15,2013-05-12 04:30:00,
2013-05-11 23:40:00,43.9,21.7,30.30,NE,44,2.0,30.0,41,0.00,,,0.00,Wunderground v.1.15,2013-05-12 04:40:00,
2013-05-11 23:45:00,44.7,21.2,30.29,NE,44,2.0,30.0,39,0.00,,,0.00,Wunderground v.1.15,2013-05-12 04:45:00,
2013-05-11 23:50:00,45.2,22.3,30.29,NE,44,3.0,30.0,40,0.00,,,0.00,Wunderground v.1.15,2013-05-12 04:50:00,
2013-05-11 23:55:00,44.9,22.0,30.29,NE,44,3.0,30.0,40,0.00,,,0.00,Wunderground v.1.15,2013-05-12 04:55:00,